Weather observations for the past three days for
Monroe Regional Airport
Metric (Imperial)
Date Time (cdt) Wind (kph) Vis. (km) Weather Sky Cond. Temperature (ºC) Relative Humidity Wind Chill (°C) Heat Index (°C) Pressure Precipitation (cm)
Air Dwpt 6 hour altimeter (cm) sea level (mb) 1 hr 3 hr 6 hr
Max. Min.
06 10:53 N 7 16.09 Fair CLR 32.8 23.3 57% 38 76.05 1013.7
06 09:53 N 9 16.09 Fair CLR 30.6 23.3 65% 35 76.05 1013.8
06 08:53 N 7 16.09 Fair CLR 28.3 23.3 74% 32 76.07 1014.1
06 07:53 NW 6 16.09 Fair CLR 25.6 23.9 90% 27 76.07 1014.1
06 06:53 Calm 16.09 Fair CLR 23.9 23.3 26.1 23.3 96% 23 76.02 1013.4
06 05:53 Calm 16.09 A Few Clouds FEW075 23.9 23.3 96% 23 76 1012.9
06 04:53 Calm 16.09 Fair CLR 24.4 23.3 94% 24 76 1012.9
06 03:53 W 7 16.09 Fair CLR 25 23.3 90% 26 75.97 1012.7
06 02:53 SW 11 16.09 Fair CLR 24.4 23.3 94% 24 75.95 1012.2
06 01:53 W 6 16.09 Fair CLR 25.6 23.3 87% 27 75.92 1012.0
06 00:53 Calm 16.09 Fair CLR 25.6 23.9 33.3 25.6 90% 27 75.9 1011.7
05 23:53 Calm 16.09 Fair CLR 25.6 23.3 87% 27 75.9 1011.6
05 22:53 S 7 16.09 Fair CLR 26.7 23.3 82% 29 75.92 1012.1
05 21:53 SW 13 16.09 Fair CLR 27.8 23.3 77% 31 75.95 1012.2
05 20:53 S 7 16.09 A Few Clouds FEW080 30.6 22.8 63% 35 75.92 1011.9
05 19:53 S 6 16.09 Fair CLR 30.6 23.9 67% 36 75.9 1011.6
05 18:53 S 7 16.09 Fair CLR 33.3 22.8 36.1 33.3 54% 38 75.84 1011.1
05 17:53 SE 7 16.09 Fair CLR 35 22.8 49% 40 75.82 1010.8
05 16:53 E 9 16.09 Partly Cloudy SCT060 34.4 22.8 51% 40 75.82 1010.7
05 15:53 SE 7 16.09 Mostly Cloudy BKN050 35 22.8 49% 40 75.84 1011.0
05 12:53 NE 7 16.09 Fair CLR 33.9 23.9 33.9 23.3 56% 40 76.05 1013.8
05 11:53 Vrbl 6 16.09 Fair CLR 32.2 24.4 63% 39 76.1 1014.4
05 10:53 Vrbl 6 16.09 Fair CLR 30 23.9 70% 35 76.12 1014.7
05 09:53 Calm 16.09 Partly Cloudy SCT100 28.3 23.9 77% 32 76.1 1014.5
05 08:53 Calm 16.09 Overcast OVC090 25.6 23.3 87% 27 76.12 1014.7
05 07:53 Calm 16.09 Overcast OVC095 24.4 23.3 94% 24 76.12 1014.6
05 06:53 Calm 16.09 Overcast OVC080 23.3 23.3 23.9 22.8 100% 76.1 1014.2
05 05:53 Calm 16.09 Fair CLR 23.3 23.3 100% 76.05 1013.8
05 04:53 Calm 16.09 Fair CLR 23.3 23.3 100% 76.07 1013.9
05 03:53 Calm 16.09 Fair CLR 23.3 23.3 100% 76.05 1013.6
05 02:53 Calm 16.09 Fair CLR 23.3 23.3 100% 76.02 1013.3
05 01:53 Calm 16.09 Fair CLR 23.9 23.3 96% 23 76.02 1013.5
05 00:53 Calm 16.09 Fair CLR 23.9 23.3 26.7 23.9 96% 23 76.05 1013.6 0.05
04 23:53 Calm 16.09 Fair CLR 24.4 22.8 91% 24 76.05 1013.8
04 22:53 S 7 16.09 Light Rain CLR 23.9 22.8 94% 23 76.07 1013.8
04 21:53 Calm 16.09 Fair CLR 24.4 23.3 94% 24 76.07 1014.0 0.05
04 20:53 Calm 16.09 Light Rain FEW070 FEW095 24.4 22.8 91% 24 76.07 1013.9
04 19:53 S 13 16.09 Light Rain SCT120 25 23.3 90% 26 76.07 1014.0 0.05
04 18:53 SE 11 16.09 Light Rain BKN100 BKN120 26.7 23.9 36.1 26.1 85% 29 76.07 1014.0 0.08 0.08
04 17:53 E 15 11.27 Rain FEW070 FEW085 BKN110 27.8 23.3 77% 31 76.05 1013.7
04 16:53 Calm 16.09 Mostly Cloudy BKN056 34.4 22.2 49% 39 75.95 1012.1
04 15:53 Vrbl 6 16.09 Fair CLR 35.6 21.7 44% 40 75.97 1012.7
04 14:53 E 7 16.09 Mostly Cloudy BKN040 34.4 22.8 51% 40 76.02 1013.4
04 13:53 NE 11 16.09 Partly Cloudy SCT043 34.4 23.3 52% 40 76.1 1014.2
04 12:53 Vrbl 6 16.09 Partly Cloudy SCT043 33.3 23.3 56% 39 76.15 0.0
04 11:53 Calm 16.09 Fair CLR 32.2 24.4 63% 39 76.23 1015.9
04 10:53 N 7 16.09 Fair CLR 30.6 24.4 70% 36 76.23 1016.1
04 09:53 Vrbl 7 16.09 Fair CLR 29.4 24.4 75% 35 76.2 1015.7
04 08:53 Calm 16.09 Fair CLR 26.1 23.3 85% 28 76.2 1015.5
04 07:53 Calm 16.09 Fair CLR 25 22.8 88% 26 76.17 1015.3
04 06:53 Calm 16.09 Fair CLR 22.8 22.8 25.6 22.8 100% 76.15 1014.9
04 05:53 Calm 16.09 Fair CLR 22.8 22.2 96% 76.12 1014.7
04 04:53 Calm 16.09 Light Rain CLR 23.3 22.8 97% 76.1 1014.5
04 03:53 Calm 16.09 Fair CLR 23.9 22.2 90% 23 76.07 1014.0
04 02:53 Calm 16.09 Fair CLR 23.9 22.8 94% 23 76.07 1013.9
04 01:53 Calm 16.09 Fair CLR 24.4 22.8 91% 24 76.07 1013.9
04 00:53 E 6 16.09 Fair CLR 25.6 22.8 33.9 25 85% 27 76.07 1013.9
03 23:53 Calm 16.09 Fair CLR 25.6 22.8 85% 27 76.05 1013.8
03 22:53 Calm 16.09 Fair CLR 26.7 22.2 76% 29 76.07 1014.0
03 21:53 E 7 16.09 Fair CLR 28.3 21.7 67% 31 76.05 1013.7
03 20:53 Vrbl 6 16.09 Fair CLR 30 21.1 59% 33 76 1013.1
03 19:53 Vrbl 6 16.09 Fair CLR 30.6 22.8 63% 35 76 1013.1
03 18:53 E 6 16.09 Fair CLR 33.9 22.8 36.1 33.3 52% 39 75.97 1012.5
03 17:53 E 6 16.09 Fair CLR 35.6 21.7 44% 40 75.92 1012.1
03 16:53 E 7 16.09 Mostly Cloudy BKN055 36.1 21.1 42% 40 75.95 1012.4
03 15:53 Calm 16.09 A Few Clouds FEW095 34.4 21.7 48% 38 76.02 1013.2
03 14:53 S 7 16.09 Fair CLR 35.6 21.7 44% 40 76.07 1013.8
03 13:53 Vrbl 6 14.48 Mostly Cloudy BKN043 35 21.7 46% 39 76.12 1014.7
03 12:53 NE 6 16.09 Mostly Cloudy BKN043 33.9 22.8 33.9 23.3 52% 39 76.17 1015.4
03 11:53 E 7 16.09 Mostly Cloudy BKN035 32.8 23.3 57% 38 76.23 1016.1
Date Time (cdt) Wind (kph) Vis. (km) Weather Sky Cond. Air Dwpt Max. Min. Relative Humidity Wind Chill (°C) Heat Index (°C) altimeter (cm) sea level (mb) 1 hr 3 hr 6 hr
6 hour
Temperature (ºC) Pressure Precipitation (cm)